Jaffrey, New Hampshire
Current Conditions -  °F | °C
As of 6:52 PM on Friday 24 Oct 2014 (Local Time) from KAFN Reporting Station
Overcast Overcast  
Wind Chill: 46°   Ceiling: 1500
Heat Index: 46°   Visibility: 10mi
Dew Point: 40°   Wind: 3mph
Humidity: 79%   Direction: 330°NNW
Pressure: 29.75"   Gusts: NA
Location:  42.81°N, 72.02°W
Report Text: KAFN 242252Z AUTO 33003KT 10SM OVC015 08/04 A2975 RMK AO2 SLP082 T00780044
Loading
Personal Weather Stations






























Interactive Weather Map
Tropical Storm Tracking
New forecast layout! Learn more

10-Day Weather Forecast

Advertisements
Track Severe Weather on mobile